• Join FlightAware (Why Join?)
  • Login
  • US Flag 
01:25AM EDT


 

Airport Tracker/Info


-or-


 

Live Flight TrackerFlight Track Log ✈ UAL495 ✈ 05-May-2013 ✈ KDEN - KIAD

Flight Track Log - Related Links

Times and Time Zones

All times are in EDT time to prevent confusion due to time zone crossing. See the UAL495 flight status page for this flight to view local times or setup timezone preferences in your user account.

Time Position Orientation Groundspeed Altitude Reporting Facility
EDT Latitude Longitude Course Direction KTS MPH feet Rate Location/Type
12:53PM 39.8833 -104.5500 85° East 215 247 7,500  Level Denver TRACON
12:54PM 39.8833 -104.4667 90° East 268 308 9,600 2,400 Climbing Denver TRACON
12:55PM 39.8667 -104.2122 90° East  Level FlightAware Approximate
12:55PM 39.8747 -104.4283 106° East 271 312 10,600  Level Denver Center
12:56PM 39.8667 -104.0603 90° East  Level FlightAware Approximate
12:56PM 39.8733 -104.3114 91° East 325 374 12,100  Level Denver Center
12:57PM 39.8667 -103.9084 90° East  Level FlightAware Approximate
12:58PM 39.8770 -103.7586 72° East  Level FlightAware Approximate
12:58PM 39.8789 -103.9992 89° East 382 440 17,900  Level Denver Center
12:59PM 39.8887 -103.6083 85° East  Level FlightAware Approximate
12:59PM 39.8881 -103.8603 85° East 390 449 20,100  Level Denver Center
01:00PM 39.8994 -103.7072 84° East 403 464 22,100 1,740 Climbing Denver Center
01:01PM 39.9114 -103.5564 84° East 412 474 23,800 1,620 Climbing Denver Center
01:02PM 39.9211 -103.3961 85° East 437 503 25,500 1,560 Climbing Denver Center
01:03PM 39.9322 -103.2314 85° East 450 518 27,100 1,380 Climbing Denver Center
01:04PM 39.9436 -103.0614 85° East 465 535 28,400 1,200 Climbing Denver Center
01:05PM 39.9550 -102.8872 85° East 476 548 29,700 1,320 Climbing Denver Center
01:06PM 39.9686 -102.6911 85° East 487 560 31,200 1,200 Climbing Denver Center
01:07PM 39.9781 -102.5203 86° East 493 567 32,300 1,080 Climbing Denver Center
01:08PM 39.9897 -102.3178 86° East 502 578 33,500 1,080 Climbing Denver Center
01:09PM 40.0019 -102.1425 85° East 510 587 34,600 1,200 Climbing Denver Center
01:10PM 40.0358 -101.9450 77° East 499 574 36,100 1,140 Climbing Denver Center
01:11PM 40.0639 -101.7783 78° East 494 568 37,000 420 Climbing Denver Center
01:12PM 40.0889 -101.5850 80° East 489 563 37,000  Level Denver Center
01:13PM 40.0975 -101.4178 86° East 486 559 37,000  Level Denver Center
01:14PM 40.1072 -101.2194 86° East 491 565 37,000  Level Denver Center
01:15PM 40.1142 -101.0506 87° East 490 564 37,000  Level Denver Center
01:17PM 40.1225 -100.8519 87° East 492 566 37,000  Level Denver Center
01:18PM 40.1297 -100.6842 87° East 488 562 37,000  Level Denver Center
01:19PM 40.1375 -100.4872 87° East 489 563 37,000  Level Denver Center
01:20PM 40.1436 -100.3189 87° East 488 562 37,000  Level Denver Center
01:21PM 40.1503 -100.1231 87° East 487 560 37,000  Level Denver Center
01:22PM 40.1556 -99.9567 88° East 482 555 37,000  Level Denver Center
01:23PM 40.1619 -99.7583 88° East 483 556 37,000  Level Denver Center
01:24PM 40.1672 -99.5836 88° East 483 556 37,000  Level Denver Center
01:25PM 40.1725 -99.4108 88° East 480 552 37,000  Level Denver Center
01:26PM 40.1775 -99.2394 88° East 476 548 37,000  Level Denver Center
01:27PM 40.1817 -99.0689 88° East 472 543 37,000  Level Denver Center
01:28PM 40.1869 -98.8658 88° East 470 541 37,000  Level Minneapolis Center
01:29PM 40.1914 -98.6983 88° East 466 536 37,000  Level Minneapolis Center
01:30PM 40.1953 -98.5319 88° East 462 532 37,000  Level Minneapolis Center
01:31PM 40.1986 -98.3322 89° East 461 531 37,000  Level Minneapolis Center
01:32PM 40.2014 -98.1653 89° East 460 529 37,000  Level Minneapolis Center
01:33PM 40.2050 -97.9994 88° East 458 527 37,000  Level Minneapolis Center
01:34PM 40.2072 -97.8317 89° East 461 531 37,000  Level Minneapolis Center
01:35PM 40.2100 -97.6639 89° East 463 533 37,000  Level Minneapolis Center
01:36PM 40.2122 -97.4950 89° East 464 534 37,000  Level Minneapolis Center
01:37PM 40.2147 -97.2961 89° East 464 534 37,000  Level Minneapolis Center
01:38PM 40.2161 -97.1289 89° East 462 532 37,000  Level Minneapolis Center
01:39PM 40.2181 -96.9631 89° East 459 528 37,000  Level Minneapolis Center
01:40PM 40.2181 -96.7969 90° East 458 527 37,000  Level Minneapolis Center
01:41PM 40.2194 -96.6344 89° East 452 520 37,000  Level Minneapolis Center
01:42PM 40.2206 -96.4725 89° East 449 517 37,000  Level Minneapolis Center
01:43PM 40.2206 -96.2778 90° East 447 514 37,000  Level Minneapolis Center
01:45PM 40.2211 -96.1178 90° East 445 512 37,000  Level Minneapolis Center
01:46PM 40.2208 -95.9567 90° East 445 512 37,000  Level Minneapolis Center
01:47PM 40.2214 -95.7942 90° East 449 517 37,000  Level Minneapolis Center
01:48PM 40.2214 -95.6344 90° East 443 510 37,000  Level Minneapolis Center
01:49PM 40.2197 -95.4758 91° East 440 506 37,000  Level Minneapolis Center
01:50PM 40.2200 -95.2867 90° East 437 503 37,000  Level Minneapolis Center
01:51PM 40.2186 -95.1281 91° East 437 503 37,000  Level Minneapolis Center
01:52PM 40.2169 -94.9686 91° East 439 505 37,000  Level Minneapolis Center
01:53PM 40.2156 -94.8097 91° East 439 505 37,000  Level Minneapolis Center
01:54PM 40.2136 -94.6517 91° East 437 503 37,000  Level Minneapolis Center
01:55PM 40.1814 -94.4836 104° East 432 497 37,000  Level Minneapolis Center
01:56PM 40.1472 -94.3358 107° East 429 494 37,000  Level Minneapolis Center
01:56PM 40.1300 -94.2650 108° East 428 493 37,000  Level Kansas City Center
01:57PM 40.0992 -94.1250 106° East 423 487 37,000  Level Kansas City Center
01:58PM 40.0658 -93.9853 107° East 425 489 37,000  Level Kansas City Center
01:59PM 40.0336 -93.8389 106° East 424 488 37,000 180 Level Kansas City Center
02:00PM 39.9961 -93.6653 106° East 421 484 37,400 420 Climbing Kansas City Center
02:01PM 39.9653 -93.5225 106° East 417 480 37,900 240 Climbing Kansas City Center
02:02PM 39.9453 -93.3697 100° East 431 496 38,000  Climbing Kansas City Center
02:03PM 39.9486 -93.2192 88° East 425 489 38,000 180 Level Kansas City Center
02:05PM 39.9497 -93.0333 89° East 431 496 38,400 480 Climbing Kansas City Center
02:06PM 39.9517 -92.8789 89° East 434 499 39,000 240 Climbing Kansas City Center
02:07PM 39.9533 -92.7253 89° East 432 497 39,000  Level Kansas City Center
02:08PM 39.9539 -92.5689 90° East 438 504 39,000  Level Kansas City Center
02:09PM 39.9544 -92.4144 90° East 436 502 39,000  Level Kansas City Center
02:10PM 39.9547 -92.2269 90° East 437 503 39,000  Level Kansas City Center
02:11PM 39.9550 -92.0703 90° East 438 504 39,000  Level Kansas City Center
02:12PM 39.9539 -91.9139 90° East 438 504 39,000  Level Kansas City Center
02:13PM 39.9517 -91.7539 91° East 442 509 39,000  Level Kansas City Center
02:14PM 39.9550 -91.5628 89° East 443 510 39,000  Level Kansas City Center
02:15PM 39.9536 -91.4047 91° East 442 509 39,000  Level Kansas City Center
02:16PM 39.9511 -91.2494 91° East 436 502 39,000  Level Kansas City Center
02:17PM 39.9508 -91.0972 90° East 428 493 39,000  Level Kansas City Center
02:18PM 39.9489 -90.9417 91° East 419 482 39,000  Level Kansas City Center
02:19PM 39.9475 -90.7931 91° East 414 476 39,000  Level Kansas City Center
02:20PM 39.9453 -90.6147 91° East 413 475 39,000  Level Kansas City Center
02:21PM 39.9436 -90.4642 91° East 415 478 39,000  Level Kansas City Center
02:22PM 39.9411 -90.3144 91° East 416 479 39,000  Level Kansas City Center
02:23PM 39.9381 -90.1669 92° East 413 475 39,000  Level Kansas City Center
02:24PM 39.9361 -90.0181 91° East 413 475 39,000  Level Kansas City Center
02:25PM 39.9331 -89.8697 91° East 412 474 39,000  Level Kansas City Center
02:26PM 39.9300 -89.6936 91° East 409 471 39,000  Level Kansas City Center
02:27PM 39.9272 -89.5469 91° East 407 468 39,000  Level Kansas City Center
02:28PM 39.9239 -89.4022 92° East 405 466 39,000  Level Kansas City Center
02:29PM 39.9211 -89.2561 91° East 404 465 39,000  Level Kansas City Center
02:30PM 39.9178 -89.1089 92° East 407 468 39,000  Level Kansas City Center
02:31PM 39.9136 -88.9614 92° East 407 468 39,000  Level Kansas City Center
02:32PM 39.9089 -88.7850 92° East 408 470 39,000  Level Kansas City Center
02:33PM 39.9042 -88.6356 92° East 412 474 39,000  Level Kansas City Center
02:34PM 39.9011 -88.4869 91° East 412 474 39,000  Level Kansas City Center
02:36PM 39.8972 -88.3331 92° East 422 486 39,000  Level Kansas City Center
02:37PM 39.8922 -88.1669 92° East 422 486 39,000  Level Kansas City Center
02:38PM 39.8853 -88.0139 93° East 422 486 39,000  Level Kansas City Center
02:39PM 39.8806 -87.8567 92° East 428 493 39,000  Level Kansas City Center
02:40PM 39.8739 -87.7022 93° East 427 491 39,000  Level Kansas City Center
02:41PM 39.8653 -87.5356 94° East 432 497 39,000 -120 Level Indianapolis Center
02:42PM 39.8608 -87.3783 92° East 435 501 38,800 -480 Descending Indianapolis Center
02:43PM 39.8544 -87.2250 93° East 427 491 38,100 -900 Descending Indianapolis Center
02:44PM 39.8461 -87.0506 94° East 407 468 37,000 -540 Descending Indianapolis Center
02:45PM 39.8406 -86.9097 93° East 394 453 37,000  Level Indianapolis Center
02:46PM 39.8344 -86.7697 93° East 389 448 37,000  Level Indianapolis Center
02:47PM 39.8275 -86.6278 94° East 394 453 37,000  Level Indianapolis Center
02:48PM 39.8206 -86.4833 94° East 399 459 37,000  Level Indianapolis Center
02:49PM 39.8167 -86.3414 92° East 400 460 37,000  Level Indianapolis Center
02:50PM 39.8375 -86.1628 81° East 412 474 37,000  Level Indianapolis Center
02:52PM 39.8594 -85.9351 83° East  Level FlightAware Approximate
02:52PM 39.8706 -85.8550 83° East 417 480 37,000  Level Indianapolis Center
02:53PM 39.8861 -85.7067 82° East 415 478 37,000  Level Indianapolis Center
02:54PM 39.9014 -85.5586 82° East 415 478 37,000  Level Indianapolis Center
02:55PM 39.9161 -85.4094 83° East 416 479 37,000  Level Indianapolis Center
02:56PM 39.9314 -85.2611 82° East 415 478 37,000  Level Indianapolis Center
02:57PM 39.9389 -85.1131 86° East 412 474 37,000  Level Indianapolis Center
02:58PM 39.9425 -84.9347 88° East 410 472 37,000  Level Indianapolis Center
02:59PM 39.9478 -84.7772 87° East 415 478 37,000 -60 Level Indianapolis Center
03:00PM 39.9522 -84.6272 88° East 413 475 36,900 -60 Descending Indianapolis Center
03:01PM 39.9572 -84.4747 88° East 417 480 36,900  Level Indianapolis Center
03:02PM 39.9617 -84.3239 88° East 415 478 36,900  Level Indianapolis Center
03:03PM 39.9672 -84.1708 87° East 419 482 36,900  Level Indianapolis Center
03:04PM 39.9717 -84.0183 88° East 418 481 36,900  Level Indianapolis Center
03:05PM 39.9756 -83.8647 88° East 419 482 36,900  Level Indianapolis Center
03:07PM 39.9797 -83.7108 88° East 419 482 37,000  Climbing Indianapolis Center
03:08PM 39.9839 -83.5556 88° East 419 482 36,900 -60 Descending Indianapolis Center
03:09PM 39.9886 -83.3978 88° East 423 487 36,900  Level Indianapolis Center
03:10PM 39.9917 -83.2142 89° East 425 489 37,000  Climbing Indianapolis Center
03:11PM 39.9947 -83.0578 88° East 427 491 36,900  Descending Indianapolis Center
03:12PM 39.9978 -82.8986 89° East 432 497 37,000  Climbing Indianapolis Center
03:13PM 40.0000 -82.7367 89° East 441 507 37,000 -60 Level Indianapolis Center
03:14PM 40.0033 -82.5739 88° East 445 512 36,900 -60 Descending Indianapolis Center
03:15PM 40.0056 -82.4106 89° East 447 514 36,900  Level Indianapolis Center
03:16PM 40.0081 -82.2478 89° East 445 512 36,900  Level Indianapolis Center
03:17PM 40.0106 -82.0839 89° East 448 516 37,000  Climbing Indianapolis Center
03:18PM 40.0125 -81.8944 89° East 444 511 36,900  Descending Indianapolis Center
03:19PM 40.0136 -81.7297 89° East 447 514 37,000  Climbing Indianapolis Center
03:20PM 40.0142 -81.5664 90° East 448 516 37,000  Level Indianapolis Center
03:21PM 40.0147 -81.4028 90° East 448 516 37,000  Level Indianapolis Center
03:22PM 40.0158 -81.2403 89° East 447 514 37,000  Level Indianapolis Center
03:23PM 40.0167 -81.0792 90° East 444 511 37,000  Level Indianapolis Center
03:24PM 40.0206 -80.9733 87° East 437 503 37,000  Level Cleveland Center
03:25PM 40.0128 -80.8136 94° East 437 503 37,000  Level Cleveland Center
03:26PM 39.9567 -80.6778 118° Southeast 432 497 37,000  Level Cleveland Center
03:27PM 39.8919 -80.5453 122° Southeast 421 484 37,000 -360 Level Cleveland Center
03:28PM 39.8272 -80.4072 121° Southeast 433 498 36,300 -900 Descending Cleveland Center
03:29PM 39.7417 -80.3050 137° Southeast 433 498 35,300 -960 Descending Cleveland Center
03:30PM 39.6539 -80.2056 139° Southeast 419 482 34,400 -1,140 Descending Cleveland Center
03:31PM 39.5531 -80.0783 136° Southeast 417 480 32,800 -1,500 Descending Washington Center
03:32PM 39.5253 -79.9261 103° East 412 474 31,100 -2,040 Descending Washington Center
03:33PM 39.5164 -79.7642 94° East 412 474 28,800 -2,040 Descending Washington Center
03:34PM 39.5069 -79.6128 95° East 422 486 27,000 -1,440 Descending Washington Center
03:35PM 39.4931 -79.4694 97° East 422 486 26,000 -1,020 Descending Washington Center
03:36PM 39.4642 -79.3256 105° East 410 472 25,000 -1,020 Descending Washington Center
03:37PM 39.4353 -79.1817 105° East 405 466 24,000 -1,500 Descending Washington Center
03:38PM 39.4100 -79.0433 103° East 405 466 22,000 -1,920 Descending Washington Center
03:39PM 39.3867 -78.9106 103° East 390 449 20,100 -2,040 Descending Washington Center
03:40PM 39.3631 -78.7833 103° East 372 428 18,000 -1,920 Descending Washington Center
03:41PM 39.3433 -78.6617 102° East 362 417 16,300 -1,740 Descending Washington Center
03:42PM 39.3192 -78.5428 105° East 350 403 14,600 -1,740 Descending Washington Center
03:43PM 39.2989 -78.4292 103° East 337 388 12,900 -1,620 Descending Washington Center
03:44PM 39.2931 -78.3217 94° East 317 365 11,400 -1,260 Descending Washington Center
03:45PM 39.2956 -78.2117 88° East 311 358 10,500 -960 Descending Washington Center
03:46PM 39.2958 -78.1019 90° East 292 336 9,600 -780 Descending Washington Center
03:47PM 39.2956 -78.0081 90° East 277 319 9,000 -300 Descending Washington Center
03:48PM 39.2956 -77.9086 90° East 270 311 9,000 -720 Level Washington Center
03:49PM 39.2953 -77.8147 90° East 270 311 7,600 -1,020 Descending Washington Center
03:50PM 39.2928 -77.7208 92° East 265 305 7,000 -840 Descending Washington Center
03:52PM 39.2167 -77.5667 122° Southeast 249 287 5,100 -840 Descending Potomac TRACON
03:53PM 39.1833 -77.5167 131° Southeast 228 262 4,600 -720 Descending Potomac TRACON
03:54PM 39.1167 -77.4667 150° Southeast 195 224 3,700 -900 Descending Potomac TRACON
03:55PM 39.0833 -77.4500 159° South 183 211 2,800 -1,020 Descending Potomac TRACON